Time;durP1;ratioP1;P1;durP2;ratioP2;P2;SDS_P1;SDS_P2;PMS_P1;PMS_P2;Temp;Humidity;BMP_temperature;BMP_pressure;BME280_temperature;BME280_humidity;BME280_pressure;Samples;Min_cycle;Max_cycle;Signal;HPM_P1;HPM_P2
2021/07/14 00:00:20;;;;;;;20.45;14.93;;;22.80;81.30;;;;;;5093646;28;20401;-85
2021/07/14 00:02:47;;;;;;;22.00;15.68;;;22.80;81.30;;;;;;5093364;28;20397;-84
2021/07/14 00:05:16;;;;;;;20.83;14.43;;;22.70;81.80;;;;;;5094640;28;20450;-85
2021/07/14 00:07:42;;;;;;;21.40;14.40;;;22.70;81.70;;;;;;5093387;28;20116;-85
2021/07/14 00:10:21;;;;;;;21.98;15.00;;;22.70;81.60;;;;;;5093457;28;20024;-86
2021/07/14 00:23:24;;;;;;;16.40;12.27;;;22.60;82.10;;;;;;5094574;28;20038;-85
2021/07/14 00:25:50;;;;;;;17.23;12.73;;;22.50;82.40;;;;;;5092966;28;20416;-84
2021/07/14 00:28:16;;;;;;;17.55;12.30;;;22.50;83.00;;;;;;5093979;28;20020;-85
2021/07/14 00:30:48;;;;;;;17.33;11.88;;;22.40;83.20;;;;;;5094424;28;20020;-84
2021/07/14 00:33:14;;;;;;;15.38;11.15;;;22.40;83.40;;;;;;5093468;28;20028;-84
2021/07/14 00:35:40;;;;;;;16.23;11.70;;;22.40;83.80;;;;;;5093051;28;20465;-84
2021/07/14 00:38:06;;;;;;;18.20;11.85;;;22.40;83.90;;;;;;5093013;28;20035;-84
2021/07/14 00:40:32;;;;;;;16.17;11.68;;;22.50;83.80;;;;;;5093011;28;20112;-83
2021/07/14 00:42:58;;;;;;;15.20;11.38;;;22.50;83.80;;;;;;5092999;28;20055;-84
2021/07/14 00:45:23;;;;;;;16.50;11.50;;;22.60;83.50;;;;;;5094002;28;20443;-83
2021/07/14 00:47:55;;;;;;;15.75;11.38;;;22.60;83.20;;;;;;5094197;28;20032;-85
2021/07/14 00:50:21;;;;;;;16.50;11.70;;;22.60;83.30;;;;;;5094028;28;20024;-85
2021/07/14 00:52:46;;;;;;;14.23;11.25;;;22.60;83.60;;;;;;5093884;28;20031;-83
2021/07/14 00:55:12;;;;;;;18.58;12.13;;;22.60;83.50;;;;;;5096272;28;20023;-83
2021/07/14 00:57:38;;;;;;;17.98;11.73;;;22.70;83.70;;;;;;5096603;28;20080;-84
2021/07/14 01:00:06;;;;;;;16.50;11.57;;;22.60;83.80;;;;;;5097078;28;20367;-85
2021/07/14 01:02:32;;;;;;;15.38;11.25;;;22.60;83.90;;;;;;5096220;28;20078;-85
2021/07/14 01:05:08;;;;;;;14.30;11.15;;;22.60;83.80;;;;;;5096389;28;20031;-84
2021/07/14 01:07:46;;;;;;;13.82;11.07;;;22.60;83.90;;;;;;5118282;28;20027;-84
2021/07/14 01:10:28;;;;;;;15.23;10.82;;;22.60;84.40;;;;;;5100303;28;20031;-85
2021/07/14 01:13:03;;;;;;;14.68;10.48;;;22.60;84.40;;;;;;5100009;28;20035;-85
2021/07/14 01:16:03;;;;;;;14.43;11.02;;;22.60;84.10;;;;;;5106515;28;20195;-85
2021/07/14 01:18:39;;;;;;;16.15;10.98;;;22.60;86.00;;;;;;5130930;28;20117;-85
2021/07/14 01:21:17;;;;;;;14.60;10.80;;;22.50;84.70;;;;;;5100115;28;20386;-85
2021/07/14 01:23:57;;;;;;;17.05;11.85;;;22.60;85.40;;;;;;5099906;28;20029;-85
2021/07/14 01:26:42;;;;;;;;;;;22.50;85.90;;;;;;5100353;28;20384;-83
2021/07/14 01:29:11;;;;;;;13.23;9.65;;;22.50;88.40;;;;;;5117703;28;19915;-85
2021/07/14 01:31:39;;;;;;;13.43;9.95;;;22.50;85.30;;;;;;5118165;28;20031;-85
2021/07/14 01:34:07;;;;;;;14.35;11.00;;;22.60;85.50;;;;;;5099751;28;20031;-84
2021/07/14 01:36:34;;;;;;;13.15;9.98;;;22.60;85.80;;;;;;5099231;28;20019;-85
2021/07/14 01:39:01;;;;;;;13.15;9.93;;;22.60;85.80;;;;;;5116755;28;20016;-84
2021/07/14 01:41:33;;;;;;;13.60;10.73;;;22.60;85.90;;;;;;5099340;28;20035;-85
2021/07/14 01:44:01;;;;;;;12.90;9.95;;;22.70;86.20;;;;;;5099023;28;20039;-84
2021/07/14 01:46:30;;;;;;;13.30;10.85;;;22.70;86.10;;;;;;5099232;28;20068;-83
2021/07/14 01:48:59;;;;;;;13.75;10.43;;;22.80;86.50;;;;;;5117681;28;20094;-84
2021/07/14 01:51:27;;;;;;;13.57;10.50;;;22.80;86.60;;;;;;5117020;28;20043;-84
2021/07/14 01:53:53;;;;;;;12.60;10.23;;;22.80;86.60;;;;;;5098903;28;20097;-84
2021/07/14 01:56:19;;;;;;;13.02;10.40;;;22.90;86.60;;;;;;5117227;28;20374;-85
2021/07/14 01:58:48;;;;;;;15.40;10.95;;;22.90;86.80;;;;;;5099039;28;20389;-85
2021/07/14 02:01:19;;;;;;;13.52;10.32;;;22.90;87.10;;;;;;5098928;28;20027;-84
2021/07/14 02:04:30;;;;;;;14.10;11.25;;;23.00;87.30;;;;;;5117652;28;20028;-85
2021/07/14 02:06:46;;;;;;;14.20;10.68;;;22.90;87.90;;;;;;5116840;28;20059;-85
2021/07/14 02:09:12;;;;;;;13.20;10.68;;;23.00;88.20;;;;;;5098236;28;20112;-85
2021/07/14 02:11:40;;;;;;;14.80;11.90;;;23.00;88.40;;;;;;5097803;28;20484;-85
2021/07/14 02:14:07;;;;;;;16.15;13.50;;;23.00;89.10;;;;;;5116341;28;20030;-86
2021/07/14 02:16:34;;;;;;;18.65;14.07;;;23.00;90.20;;;;;;5097751;28;20031;-85
2021/07/14 02:19:01;;;;;;;17.13;12.48;;;23.00;90.00;;;;;;5098002;28;20027;-85
2021/07/14 02:21:27;;;;;;;15.07;12.30;;;23.10;90.10;;;;;;5115721;28;20027;-85
2021/07/14 02:23:54;;;;;;;17.33;13.00;;;23.10;90.30;;;;;;5097716;28;20063;-85
2021/07/14 02:26:20;;;;;;;15.80;12.02;;;23.10;90.40;;;;;;5098780;28;20393;-84
2021/07/14 02:28:46;;;;;;;17.75;12.27;;;23.10;90.70;;;;;;5116650;28;20020;-85
2021/07/14 02:31:11;;;;;;;13.13;10.82;;;23.10;90.50;;;;;;5098388;28;20072;-84
2021/07/14 02:33:37;;;;;;;15.07;11.65;;;23.10;90.50;;;;;;5115359;28;20076;-84
2021/07/14 02:36:07;;;;;;;14.70;11.40;;;23.20;90.70;;;;;;5098622;28;20023;-84
2021/07/14 02:38:41;;;;;;;13.23;11.32;;;23.20;90.90;;;;;;5098301;28;20024;-84
2021/07/14 02:41:21;;;;;;;13.82;11.00;;;23.20;91.10;;;;;;5098698;28;20442;-85
2021/07/14 02:43:58;;;;;;;12.82;10.57;;;23.20;91.00;;;;;;5098668;28;20036;-85
2021/07/14 02:46:27;;;;;;;14.02;10.80;;;23.30;91.10;;;;;;5098311;28;20059;-84
2021/07/14 02:48:56;;;;;;;13.15;10.02;;;23.30;90.70;;;;;;5116189;28;20488;-85
2021/07/14 02:51:30;;;;;;;12.05;10.00;;;23.30;90.70;;;;;;5097904;28;20114;-84
2021/07/14 02:54:00;;;;;;;13.73;11.52;;;23.30;91.10;;;;;;5097600;28;20055;-84
2021/07/14 02:56:28;;;;;;;12.52;10.77;;;23.30;91.10;;;;;;5116764;28;20034;-84
2021/07/14 02:58:59;;;;;;;14.27;11.52;;;23.30;91.10;;;;;;5115952;28;20062;-85
2021/07/14 03:01:26;;;;;;;13.10;11.07;;;23.30;91.20;;;;;;5116204;28;20062;-84
2021/07/14 03:03:53;;;;;;;13.13;10.82;;;23.30;91.40;;;;;;5098086;28;20035;-85
2021/07/14 03:06:20;;;;;;;12.65;10.70;;;23.30;91.40;;;;;;5116029;28;20065;-85
2021/07/14 03:08:48;;;;;;;13.73;10.15;;;23.40;91.50;;;;;;5098226;28;20031;-85
2021/07/14 03:11:16;;;;;;;13.35;10.95;;;23.40;91.60;;;;;;5097881;28;20525;-86
2021/07/14 03:13:44;;;;;;;12.55;10.48;;;23.50;91.70;;;;;;5097665;28;20031;-85
2021/07/14 03:16:10;;;;;;;12.63;10.70;;;23.50;91.60;;;;;;5097451;28;20024;-85
2021/07/14 03:18:37;;;;;;;13.07;10.85;;;23.60;91.80;;;;;;5097357;28;20070;-86
2021/07/14 03:21:03;;;;;;;13.13;10.75;;;23.60;91.80;;;;;;5115818;28;20032;-85
2021/07/14 03:23:31;;;;;;;12.98;10.80;;;23.70;91.80;;;;;;5116147;28;20024;-85
2021/07/14 03:25:58;;;;;;;13.98;10.88;;;23.70;91.70;;;;;;5115836;28;20397;-85
2021/07/14 03:28:30;;;;;;;13.90;11.05;;;23.80;91.80;;;;;;5096632;28;20023;-84
2021/07/14 03:31:01;;;;;;;12.57;10.23;;;23.80;91.80;;;;;;5097125;28;20065;-84
2021/07/14 03:33:27;;;;;;;;;;;23.90;91.70;;;;;;5097633;28;20028;-85
2021/07/14 03:35:53;;;;;;;10.50;8.50;;;23.90;93.00;;;;;;5097022;28;19908;-84
2021/07/14 03:38:19;;;;;;;10.88;8.93;;;24.00;91.40;;;;;;5097025;28;20055;-84
2021/07/14 03:40:46;;;;;;;11.68;8.75;;;24.10;91.20;;;;;;5097306;28;20065;-85
2021/07/14 03:43:12;;;;;;;11.82;9.27;;;24.10;91.10;;;;;;5097035;28;20040;-84
2021/07/14 03:45:41;;;;;;;10.10;8.82;;;24.20;91.10;;;;;;5114753;28;20111;-84
2021/07/14 03:48:10;;;;;;;9.38;8.38;;;24.30;91.00;;;;;;5097032;28;20027;-84
2021/07/14 03:50:38;;;;;;;10.25;9.15;;;24.40;90.80;;;;;;5096970;28;20031;-84
2021/07/14 03:53:04;;;;;;;9.70;8.68;;;24.50;90.70;;;;;;5097012;28;20442;-84
2021/07/14 03:55:30;;;;;;;9.70;8.50;;;24.50;90.50;;;;;;5097422;28;20031;-84
2021/07/14 03:57:56;;;;;;;11.20;9.45;;;24.60;90.50;;;;;;5096836;28;20024;-84
2021/07/14 04:00:34;;;;;;;10.43;9.10;;;24.70;90.50;;;;;;5114718;28;20038;-85
2021/07/14 04:03:01;;;;;;;11.38;9.27;;;24.70;90.50;;;;;;5114741;28;20149;-84
2021/07/14 04:05:27;;;;;;;10.85;8.50;;;24.80;90.30;;;;;;5096588;28;20031;-85
2021/07/14 04:07:55;;;;;;;10.70;9.60;;;24.90;90.30;;;;;;5096636;28;20030;-84
2021/07/14 04:10:21;;;;;;;11.70;9.20;;;24.90;90.20;;;;;;5096340;28;20389;-85
2021/07/14 04:12:49;;;;;;;9.65;8.65;;;25.00;90.10;;;;;;5096627;28;20359;-85
2021/07/14 04:15:15;;;;;;;9.57;8.57;;;25.10;90.00;;;;;;5095315;28;20024;-84
2021/07/14 04:17:41;;;;;;;8.80;7.72;;;25.20;89.80;;;;;;5096511;28;20035;-84
2021/07/14 04:20:07;;;;;;;9.27;8.20;;;25.30;89.40;;;;;;5095918;28;20047;-83
2021/07/14 04:22:33;;;;;;;10.07;8.02;;;25.40;89.00;;;;;;5095800;28;20424;-87
2021/07/14 04:24:59;;;;;;;9.32;7.80;;;25.50;88.70;;;;;;5096183;28;20031;-86
2021/07/14 04:27:26;;;;;;;9.20;7.55;;;25.60;88.30;;;;;;5096117;28;20050;-88
2021/07/14 04:29:52;;;;;;;9.57;7.45;;;25.70;88.00;;;;;;5113922;28;20051;-85
2021/07/14 04:32:17;;;;;;;8.98;7.75;;;25.80;87.50;;;;;;5113826;28;20042;-87
2021/07/14 04:34:43;;;;;;;9.13;7.72;;;25.80;87.20;;;;;;5111646;28;20027;-87
2021/07/14 04:37:09;;;;;;;16.65;14.85;;;25.90;87.00;;;;;;5081656;28;20535;-94
2021/07/14 04:39:41;;;;;;;58.97;50.13;;;26.00;86.90;;;;;;5085405;28;20052;-92
2021/07/14 04:42:13;;;;;;;33.97;29.50;;;26.00;86.70;;;;;;5092124;28;20088;-92
2021/07/14 04:44:48;;;;;;;20.73;18.52;;;26.10;86.30;;;;;;5114783;28;20019;-89
2021/07/14 04:47:15;;;;;;;15.43;13.82;;;26.20;85.90;;;;;;5117784;28;20019;-88
2021/07/14 04:49:41;;;;;;;12.73;11.15;;;26.30;85.50;;;;;;5097794;28;20466;-94
2021/07/14 04:52:07;;;;;;;11.52;9.18;;;26.40;85.20;;;;;;5098219;28;20034;-90
2021/07/14 04:54:33;;;;;;;10.48;8.25;;;26.50;84.80;;;;;;5114539;28;20040;-91
2021/07/14 04:56:59;;;;;;;10.65;8.10;;;26.50;84.40;;;;;;5096113;28;20477;-89
2021/07/14 04:59:25;;;;;;;8.50;7.53;;;26.60;84.10;;;;;;5096157;28;20072;-90
2021/07/14 05:01:50;;;;;;;7.70;6.85;;;26.60;83.60;;;;;;5095924;28;20034;-90
2021/07/14 05:04:16;;;;;;;8.20;6.15;;;26.80;83.30;;;;;;5096056;28;20058;-88
2021/07/14 05:06:42;;;;;;;7.78;6.15;;;26.90;82.80;;;;;;5095975;28;20060;-89
2021/07/14 05:09:08;;;;;;;7.28;6.03;;;26.90;82.40;;;;;;5095896;28;20073;-91
2021/07/14 05:11:34;;;;;;;5.88;5.20;;;27.00;82.00;;;;;;5114937;28;20031;-91
2021/07/14 05:14:00;;;;;;;6.32;5.32;;;27.00;81.40;;;;;;5099797;28;20072;-90
2021/07/14 05:16:29;;;;;;;6.47;4.75;;;27.10;81.10;;;;;;5096596;28;20106;-92
2021/07/14 05:18:55;;;;;;;5.47;4.95;;;27.20;81.20;;;;;;5100479;28;20046;-91
2021/07/14 05:21:23;;;;;;;6.75;5.35;;;27.40;80.10;;;;;;5118183;28;20016;-90
2021/07/14 05:23:49;;;;;;;8.07;5.70;;;27.40;79.50;;;;;;5098086;28;20039;-89
2021/07/14 05:26:16;;;;;;;5.88;5.22;;;27.40;79.30;;;;;;5096153;28;20034;-90
2021/07/14 05:28:42;;;;;;;6.10;5.38;;;27.50;79.10;;;;;;5113321;28;20086;-93
2021/07/14 05:31:09;;;;;;;5.88;5.30;;;27.50;78.60;;;;;;5094330;28;20032;-88
2021/07/14 05:33:35;;;;;;;8.18;7.03;;;27.60;78.30;;;;;;5097590;28;20016;-96
2021/07/14 05:36:00;;;;;;;6.72;6.03;;;27.70;78.00;;;;;;5077014;28;20038;-92
2021/07/14 05:38:28;;;;;;;6.45;5.75;;;27.80;77.60;;;;;;5111927;28;20027;-93
2021/07/14 05:40:54;;;;;;;6.75;5.85;;;27.90;77.20;;;;;;5094537;28;20031;-93
2021/07/14 05:43:25;;;;;;;6.03;5.43;;;28.00;76.90;;;;;;5095471;28;20039;-94
2021/07/14 05:45:51;;;;;;;5.53;5.03;;;28.10;76.60;;;;;;5100531;28;20024;-93
2021/07/14 05:48:20;;;;;;;5.57;5.00;;;28.20;76.40;;;;;;5111883;28;20028;-90
2021/07/14 05:50:45;;;;;;;5.72;4.85;;;28.20;76.00;;;;;;5093380;28;20055;-90
2021/07/14 05:53:14;;;;;;;6.13;4.80;;;28.30;75.40;;;;;;5093823;28;20098;-89
2021/07/14 05:55:39;;;;;;;6.38;4.93;;;28.30;74.90;;;;;;5096705;28;20119;-93
2021/07/14 05:58:08;;;;;;;5.50;4.70;;;28.40;74.50;;;;;;5091518;28;20064;-93
2021/07/14 06:00:34;;;;;;;5.50;4.90;;;28.50;74.40;;;;;;5074439;28;20032;-92
2021/07/14 06:03:01;;;;;;;6.20;4.70;;;28.50;73.90;;;;;;5078728;28;20040;-94
2021/07/14 06:05:27;;;;;;;5.13;4.60;;;28.60;73.60;;;;;;5095418;28;20032;-91
2021/07/14 06:07:53;;;;;;;5.78;4.97;;;28.70;73.30;;;;;;5079078;28;20490;-91
2021/07/14 06:10:23;;;;;;;5.40;4.78;;;28.70;72.90;;;;;;5079587;28;20090;-92
2021/07/14 06:12:55;;;;;;;5.28;4.75;;;28.80;72.50;;;;;;5078148;28;20106;-90
2021/07/14 06:15:21;;;;;;;5.55;4.60;;;28.80;72.30;;;;;;5079033;28;20024;-91
2021/07/14 06:17:47;;;;;;;4.90;4.40;;;28.90;72.20;;;;;;5082189;28;20021;-92
2021/07/14 06:20:13;;;;;;;5.40;4.90;;;29.00;71.90;;;;;;5093604;28;20101;-94
2021/07/14 06:22:39;;;;;;;5.07;4.25;;;29.10;71.70;;;;;;5103622;28;20036;-89
2021/07/14 06:25:08;;;;;;;5.22;4.20;;;29.20;71.30;;;;;;5102860;28;20024;-89
2021/07/14 06:27:34;;;;;;;5.00;4.18;;;29.30;71.00;;;;;;5089593;28;20021;-89
2021/07/14 06:30:05;;;;;;;62.38;46.78;;;29.40;70.40;;;;;;5081987;28;20051;-91
2021/07/14 06:32:32;;;;;;;34.10;28.30;;;29.50;70.10;;;;;;5088772;28;20036;-87
2021/07/14 06:35:00;;;;;;;19.90;16.88;;;29.60;69.90;;;;;;5073778;28;20036;-88
2021/07/14 06:37:27;;;;;;;13.45;11.85;;;29.70;69.30;;;;;;5093723;28;20024;-93
2021/07/14 06:39:55;;;;;;;9.50;8.25;;;29.70;69.00;;;;;;5096130;28;20051;-91
2021/07/14 06:42:21;;;;;;;7.82;6.90;;;29.80;68.90;;;;;;5092107;28;20127;-87
2021/07/14 06:44:47;;;;;;;7.18;6.10;;;29.90;68.40;;;;;;5093009;28;20554;-88
2021/07/14 06:47:13;;;;;;;7.88;6.25;;;30.00;67.90;;;;;;5092812;28;20505;-89
2021/07/14 06:49:40;;;;;;;5.95;5.35;;;30.00;67.90;;;;;;5077797;28;20020;-88
2021/07/14 06:52:06;;;;;;;5.82;5.05;;;30.10;67.70;;;;;;5076139;28;20039;-89
2021/07/14 06:54:32;;;;;;;7.53;6.00;;;30.20;67.40;;;;;;5080962;28;20044;-88
2021/07/14 06:56:57;;;;;;;6.32;5.10;;;30.20;66.50;;;;;;5085609;28;20078;-88
2021/07/14 06:59:26;;;;;;;7.03;4.72;;;30.20;66.30;;;;;;5084369;28;20055;-89
2021/07/14 07:01:52;;;;;;;6.03;5.00;;;30.30;66.40;;;;;;5082842;28;20044;-88
2021/07/14 07:04:18;;;;;;;5.82;4.75;;;30.30;66.00;;;;;;5077146;28;20028;-89
2021/07/14 07:06:43;;;;;;;5.30;4.72;;;30.30;65.90;;;;;;5080537;28;20111;-89
2021/07/14 07:09:09;;;;;;;8.18;4.93;;;30.40;66.10;;;;;;5094285;28;20074;-87
2021/07/14 07:11:36;;;;;;;6.20;5.28;;;30.40;65.80;;;;;;5086530;28;20513;-87
2021/07/14 07:14:03;;;;;;;5.38;4.88;;;30.50;64.90;;;;;;5079413;28;20028;-88
2021/07/14 07:16:28;;;;;;;7.00;4.85;;;30.60;64.90;;;;;;5073730;28;20083;-89
2021/07/14 07:18:54;;;;;;;5.22;4.72;;;30.70;64.80;;;;;;5073704;28;20491;-89
2021/07/14 07:21:20;;;;;;;8.05;5.38;;;30.70;64.90;;;;;;5090441;28;20036;-89
2021/07/14 07:23:45;;;;;;;7.70;4.88;;;30.90;64.90;;;;;;5074048;28;20466;-88
2021/07/14 07:26:14;;;;;;;6.15;4.68;;;31.00;65.40;;;;;;5078315;28;20039;-88
2021/07/14 07:28:41;;;;;;;6.55;4.65;;;31.10;64.60;;;;;;5096622;28;20033;-88
2021/07/14 07:31:09;;;;;;;5.20;4.30;;;31.30;64.40;;;;;;5075080;28;20945;-90
2021/07/14 07:33:38;;;;;;;5.50;4.50;;;31.30;64.00;;;;;;5085842;28;20035;-87
2021/07/14 07:36:05;;;;;;;4.33;3.70;;;31.50;63.90;;;;;;5093541;28;20031;-88
2021/07/14 07:38:33;;;;;;;4.03;3.60;;;31.60;63.50;;;;;;5093751;28;20253;-88
2021/07/14 07:40:59;;;;;;;4.25;3.65;;;31.70;63.20;;;;;;5093374;28;20081;-87
2021/07/14 07:43:28;;;;;;;4.50;3.90;;;31.80;62.70;;;;;;5093582;28;20028;-88
2021/07/14 07:45:58;;;;;;;4.18;3.78;;;31.90;62.00;;;;;;5095258;28;20103;-88
2021/07/14 07:48:24;;;;;;;4.70;3.67;;;31.90;62.00;;;;;;5094638;28;20052;-88
2021/07/14 07:50:51;;;;;;;4.30;3.90;;;32.00;61.90;;;;;;5094016;28;20078;-87
2021/07/14 07:53:20;;;;;;;4.75;4.18;;;32.10;61.60;;;;;;5096645;28;20047;-87
2021/07/14 07:55:50;;;;;;;;;;;32.10;61.30;;;;;;5097678;28;20475;-89
2021/07/14 07:58:16;;;;;;;8.45;5.03;;;32.20;58.10;;;;;;5096913;28;19933;-87
2021/07/14 08:00:44;;;;;;;9.07;5.47;;;32.30;61.40;;;;;;5097538;28;20019;-90
2021/07/14 08:03:09;;;;;;;21.20;7.72;;;32.40;60.80;;;;;;5097145;28;20409;-87
2021/07/14 08:05:35;;;;;;;6.65;5.00;;;32.40;60.50;;;;;;5097444;28;20027;-88
2021/07/14 08:08:02;;;;;;;5.97;4.00;;;32.50;60.60;;;;;;5099922;28;20031;-87
2021/07/14 08:10:28;;;;;;;5.30;3.92;;;32.50;60.10;;;;;;5100216;28;20104;-86
2021/07/14 08:12:53;;;;;;;5.28;3.95;;;32.50;60.10;;;;;;5106880;28;20028;-87
2021/07/14 08:15:19;;;;;;;4.03;3.53;;;32.60;59.90;;;;;;5111516;28;20070;-86
2021/07/14 08:17:45;;;;;;;4.88;3.67;;;32.70;59.60;;;;;;5091114;28;20525;-87
2021/07/14 08:20:12;;;;;;;4.30;3.90;;;32.70;59.80;;;;;;5110463;28;20024;-87
2021/07/14 08:22:38;;;;;;;8.07;6.97;;;32.90;60.20;;;;;;5081812;28;20082;-87
2021/07/14 08:25:05;;;;;;;5.40;4.90;;;33.20;60.60;;;;;;5092748;28;20054;-87
2021/07/14 08:27:31;;;;;;;12.13;6.20;;;33.40;60.90;;;;;;5085091;28;20019;-88
2021/07/14 08:30:00;;;;;;;9.73;5.45;;;33.70;60.30;;;;;;5105884;28;20020;-88
2021/07/14 08:32:26;;;;;;;6.13;4.10;;;34.00;59.60;;;;;;5095876;28;20023;-87
2021/07/14 08:34:56;;;;;;;10.05;6.15;;;34.40;58.90;;;;;;5098062;28;20027;-94
2021/07/14 08:37:22;;;;;;;22.23;20.00;;;34.70;58.50;;;;;;5103246;28;20473;-96
2021/07/14 08:39:50;;;;;;;12.38;10.52;;;35.00;58.20;;;;;;5090846;28;20051;-92
2021/07/14 08:42:17;;;;;;;10.45;7.70;;;35.30;58.20;;;;;;5076548;28;20032;-90
2021/07/14 08:44:46;;;;;;;6.80;5.63;;;35.60;58.00;;;;;;5075844;28;20028;-91
2021/07/14 08:47:12;;;;;;;5.93;5.00;;;36.00;57.50;;;;;;5104086;28;20062;-90
2021/07/14 08:49:41;;;;;;;18.20;8.48;;;36.20;57.20;;;;;;5080011;28;20028;-93
2021/07/14 08:52:07;;;;;;;6.50;5.00;;;36.50;56.40;;;;;;5094782;28;20028;-94
2021/07/14 08:54:37;;;;;;;8.23;4.70;;;36.80;55.70;;;;;;5076534;28;20048;-94
2021/07/14 08:57:31;;;;;;;5.43;4.93;;;37.00;54.60;;;;;;5087983;28;20024;-94
2021/07/14 08:59:59;;;;;;;5.80;4.75;;;37.20;49.60;;;;;;5096263;28;20028;-93
2021/07/14 09:02:25;;;;;;;4.85;4.45;;;37.40;53.70;;;;;;5114814;28;20031;-94
2021/07/14 09:04:50;;;;;;;5.07;4.57;;;37.70;52.90;;;;;;5096328;28;20016;-94
2021/07/14 09:07:19;;;;;;;5.57;4.57;;;37.80;51.70;;;;;;5096195;28;20027;-92
2021/07/14 09:16:54;;;;;;;4.97;4.47;;;38.30;46.00;;;;;;5114265;28;20464;-93
2021/07/14 09:23:16;;;;;;;5.60;5.00;;;38.70;44.70;;;;;;5114873;28;20442;-93
2021/07/14 09:29:45;;;;;;;6.28;5.00;;;38.80;45.10;;;;;;5099547;28;20023;-94
2021/07/14 10:09:55;;;;;;;5.60;4.88;;;39.70;39.30;;;;;;5069515;28;20047;-93
2021/07/14 10:12:29;;;;;;;5.90;5.30;;;39.70;43.20;;;;;;5058851;28;20055;-95
2021/07/14 10:15:20;;;;;;;5.85;5.10;;;39.90;42.20;;;;;;5060853;28;20127;-94
2021/07/14 10:17:48;;;;;;;6.40;4.97;;;40.00;41.20;;;;;;5060231;28;20037;-94
2021/07/14 10:20:37;;;;;;;5.75;5.25;;;40.10;42.80;;;;;;5060488;28;20059;-93
2021/07/14 10:23:07;;;;;;;;;;;40.30;39.00;;;;;;5064236;28;20040;-92
2021/07/14 10:25:36;;;;;;;6.63;5.90;;;40.10;39.50;;;;;;5075158;28;19958;-93
2021/07/14 10:28:04;;;;;;;5.97;5.30;;;40.30;42.70;;;;;;5065361;28;20488;-95
2021/07/14 10:30:31;;;;;;;6.40;5.80;;;40.50;42.20;;;;;;5064029;28;20036;-94
2021/07/14 10:33:02;;;;;;;5.95;5.30;;;40.60;41.70;;;;;;5087131;28;20029;-94
2021/07/14 10:35:36;;;;;;;6.05;5.45;;;40.80;41.50;;;;;;5081386;28;20032;-94
2021/07/14 10:38:15;;;;;;;5.55;4.95;;;40.90;40.90;;;;;;5079001;28;20075;-94
2021/07/14 10:40:43;;;;;;;6.03;5.43;;;41.10;41.40;;;;;;5061742;28;20036;-96
2021/07/14 10:43:12;;;;;;;6.15;5.55;;;41.10;40.90;;;;;;5061425;28;20036;-95
2021/07/14 10:45:44;;;;;;;6.10;5.30;;;41.20;41.40;;;;;;5065770;28;20033;-94
2021/07/14 10:48:13;;;;;;;5.35;4.88;;;41.30;40.40;;;;;;5068282;28;20047;-94
2021/07/14 10:50:42;;;;;;;;;;;41.30;39.70;;;;;;5063149;28;20132;-95
2021/07/14 10:53:19;;;;;;;5.85;5.07;;;41.20;37.30;;;;;;5095061;28;20087;-94
2021/07/14 10:55:53;;;;;;;5.60;5.10;;;41.30;40.00;;;;;;5061291;28;20095;-95
2021/07/14 10:58:32;;;;;;;5.80;5.30;;;41.40;38.70;;;;;;5059436;28;20473;-95
2021/07/14 11:01:00;;;;;;;6.70;5.10;;;41.50;38.60;;;;;;5060691;28;20037;-95
2021/07/14 11:03:44;;;;;;;6.20;4.90;;;41.60;39.10;;;;;;5060073;28;20040;-95
2021/07/14 11:06:14;;;;;;;6.40;5.05;;;41.80;38.90;;;;;;5060127;28;20136;-95
2021/07/14 11:08:47;;;;;;;6.22;4.93;;;41.80;38.60;;;;;;5059245;28;20037;-95
2021/07/14 11:11:15;;;;;;;5.32;4.82;;;41.90;38.30;;;;;;5058997;28;20051;-95
2021/07/14 11:13:46;;;;;;;6.28;4.30;;;42.00;38.10;;;;;;5058159;28;20090;-94
2021/07/14 11:16:29;;;;;;;6.30;5.07;;;42.10;37.90;;;;;;5059012;28;20120;-95
2021/07/14 11:19:11;;;;;;;6.18;4.45;;;42.10;36.80;;;;;;5059634;28;20040;-95
2021/07/14 11:21:45;;;;;;;5.38;4.88;;;42.20;37.20;;;;;;5058561;28;20071;-95
2021/07/14 11:24:11;;;;;;;5.85;5.25;;;42.30;36.80;;;;;;5058622;28;20548;-96
2021/07/14 11:26:40;;;;;;;5.38;4.88;;;42.30;37.10;;;;;;5059641;28;20171;-95
2021/07/14 11:29:13;;;;;;;7.32;4.50;;;42.50;37.00;;;;;;5059200;28;20470;-95
2021/07/14 11:31:42;;;;;;;4.80;4.32;;;42.50;35.70;;;;;;5058110;28;20036;-95
2021/07/14 11:34:43;;;;;;;;;;;42.50;36.40;;;;;;5058455;28;20043;-94
2021/07/14 11:37:29;;;;;;;4.70;4.30;;;42.30;33.90;;;;;;4981876;28;19996;-95
2021/07/14 11:40:15;;;;;;;5.10;4.60;;;42.40;35.50;;;;;;5052679;28;20466;-92
2021/07/14 11:43:12;;;;;;;6.70;4.55;;;42.40;36.50;;;;;;5058753;28;20041;-94
2021/07/14 11:45:48;;;;;;;7.05;4.53;;;42.60;35.10;;;;;;5059404;28;20041;-93
2021/07/14 11:48:26;;;;;;;5.93;4.35;;;42.60;36.10;;;;;;5058921;28;20058;-94
2021/07/14 11:50:58;;;;;;;4.78;4.05;;;42.90;35.10;;;;;;5060887;28;20036;-93
2021/07/14 11:53:42;;;;;;;4.50;4.10;;;42.90;34.50;;;;;;5066448;28;20036;-93
2021/07/14 11:56:22;;;;;;;5.10;3.78;;;42.90;35.00;;;;;;5071624;28;20087;-94
2021/07/14 11:59:10;;;;;;;4.88;4.20;;;43.00;34.10;;;;;;5092968;28;20028;-93
2021/07/14 12:01:39;;;;;;;5.22;4.13;;;42.90;34.60;;;;;;5097225;28;20088;-91
2021/07/14 12:04:06;;;;;;;6.47;3.85;;;42.90;34.80;;;;;;5077718;28;20044;-92
2021/07/14 12:06:45;;;;;;;4.10;3.70;;;42.90;34.50;;;;;;5076861;28;20033;-93
2021/07/14 12:09:14;;;;;;;5.75;4.28;;;43.00;34.40;;;;;;5067992;28;20037;-94
2021/07/14 12:11:50;;;;;;;5.18;4.07;;;43.00;34.40;;;;;;5071514;28;20053;-94
2021/07/14 12:14:20;;;;;;;4.18;3.78;;;42.90;34.00;;;;;;5042143;28;20055;-93
2021/07/14 12:17:12;;;;;;;5.22;4.03;;;42.90;34.20;;;;;;5039555;28;20029;-93
2021/07/14 12:19:40;;;;;;;5.72;3.97;;;43.00;32.40;;;;;;5041153;28;20093;-93
2021/07/14 12:22:12;;;;;;;3.90;3.50;;;42.90;33.90;;;;;;5056274;28;20120;-94
2021/07/14 12:24:51;;;;;;;4.35;3.70;;;43.10;34.10;;;;;;5038887;28;20418;-92
2021/07/14 12:27:27;;;;;;;5.05;4.20;;;43.20;32.70;;;;;;5039163;28;20466;-93
2021/07/14 12:30:21;;;;;;;4.15;3.75;;;43.10;33.70;;;;;;5055568;28;20036;-93
2021/07/14 12:33:08;;;;;;;4.95;3.70;;;43.20;32.40;;;;;;5038486;28;20448;-94
2021/07/14 12:35:39;;;;;;;3.80;3.50;;;43.10;33.60;;;;;;5037671;28;20087;-94
2021/07/14 12:38:15;;;;;;;3.72;3.42;;;43.30;33.70;;;;;;5055391;28;20064;-94
2021/07/14 12:40:47;;;;;;;5.07;3.58;;;43.40;33.10;;;;;;5054825;28;20037;-95
2021/07/14 12:43:20;;;;;;;4.25;3.50;;;43.30;33.00;;;;;;5037227;28;20037;-95
2021/07/14 12:45:47;;;;;;;4.35;3.75;;;43.30;33.30;;;;;;5037850;28;20383;-95
2021/07/14 12:48:21;;;;;;;3.53;3.23;;;43.30;33.10;;;;;;5037363;28;20033;-95
2021/07/14 12:50:48;;;;;;;5.10;3.28;;;43.30;32.90;;;;;;5037501;28;20029;-93
2021/07/14 12:53:15;;;;;;;4.95;3.10;;;43.40;32.90;;;;;;5056783;28;20037;-92
2021/07/14 12:55:43;;;;;;;3.33;2.95;;;43.40;32.60;;;;;;5040711;28;20033;-93
2021/07/14 12:58:18;;;;;;;3.53;3.10;;;43.50;32.60;;;;;;5038309;28;20458;-93
2021/07/14 13:01:09;;;;;;;4.25;3.10;;;43.50;32.10;;;;;;5039903;28;20029;-93
2021/07/14 13:03:37;;;;;;;4.38;3.22;;;43.50;32.40;;;;;;5059872;28;20037;-93
2021/07/14 13:06:05;;;;;;;3.95;3.33;;;43.40;32.50;;;;;;5060569;28;20025;-93
2021/07/14 13:08:31;;;;;;;;;;;43.40;32.40;;;;;;5043159;28;20057;-93
2021/07/14 13:11:04;;;;;;;5.03;3.38;;;43.00;30.50;;;;;;5045750;28;20035;-94
2021/07/14 13:13:36;;;;;;;4.38;3.30;;;43.10;32.00;;;;;;5062470;28;20046;-94
2021/07/14 13:16:07;;;;;;;3.78;3.40;;;43.20;32.30;;;;;;5066334;28;20083;-93
2021/07/14 13:18:41;;;;;;;3.45;3.15;;;43.20;32.30;;;;;;5079471;28;20094;-93
2021/07/14 13:21:08;;;;;;;3.58;3.28;;;43.30;31.70;;;;;;5063033;28;20036;-92
2021/07/14 13:23:36;;;;;;;4.13;3.20;;;43.30;32.20;;;;;;5068215;28;20036;-93
2021/07/14 13:26:03;;;;;;;4.78;3.40;;;43.40;32.30;;;;;;5065070;28;20056;-93
2021/07/14 13:28:36;;;;;;;3.95;3.47;;;43.40;32.20;;;;;;5065482;28;20033;-92
2021/07/14 13:31:10;;;;;;;4.05;3.40;;;43.40;31.40;;;;;;5068260;28;20512;-93
2021/07/14 13:33:42;;;;;;;4.18;3.78;;;43.40;31.90;;;;;;5065284;28;20367;-92
2021/07/14 13:36:09;;;;;;;4.00;3.67;;;43.40;31.90;;;;;;5063187;28;20036;-93
2021/07/14 13:38:49;;;;;;;4.45;3.80;;;43.40;31.90;;;;;;5063036;28;20029;-94
2021/07/14 13:41:16;;;;;;;5.25;4.13;;;43.40;30.80;;;;;;5064026;28;20087;-92
2021/07/14 13:43:50;;;;;;;4.53;4.05;;;43.40;31.80;;;;;;5088271;28;20121;-93
2021/07/14 13:46:28;;;;;;;4.03;3.58;;;43.40;31.80;;;;;;5083958;28;20033;-93
2021/07/14 13:49:04;;;;;;;4.23;3.70;;;43.40;30.90;;;;;;5070941;28;20106;-94
2021/07/14 13:51:44;;;;;;;4.28;3.88;;;43.30;31.70;;;;;;5060973;28;20265;-92
2021/07/14 13:54:39;;;;;;;4.10;3.70;;;43.20;30.70;;;;;;5060051;28;20111;-93
2021/07/14 13:57:05;;;;;;;4.03;3.40;;;43.10;31.40;;;;;;5055110;28;20037;-93
2021/07/14 13:59:38;;;;;;;4.30;3.90;;;43.00;31.70;;;;;;5061669;28;20078;-93